createdAt,value
2019-01-30T00:00:07.616Z,9.20
2019-01-30T00:01:07.626Z,9.30
2019-01-30T00:02:07.600Z,9.30
2019-01-30T00:03:07.584Z,8.90
2019-01-30T00:04:07.590Z,8.80
2019-01-30T00:05:07.565Z,9.00
2019-01-30T00:06:07.556Z,9.50
2019-01-30T00:07:07.631Z,8.20
2019-01-30T00:08:07.530Z,8.70
2019-01-30T00:09:07.521Z,9.10
2019-01-30T00:10:07.519Z,8.60
2019-01-30T00:11:07.510Z,8.40
2019-01-30T00:12:09.813Z,8.20
2019-01-30T00:13:07.477Z,9.70
2019-01-30T00:14:07.467Z,9.60
2019-01-30T00:15:07.486Z,9.50
2019-01-30T00:16:07.444Z,9.20
2019-01-30T00:17:07.430Z,8.90
2019-01-30T00:18:07.420Z,8.90
2019-01-30T00:19:07.410Z,9.20
2019-01-30T00:20:07.410Z,9.40
2019-01-30T00:21:07.422Z,9.10
2019-01-30T00:22:07.378Z,9.60
2019-01-30T00:23:07.365Z,9.10
2019-01-30T00:24:07.353Z,8.80
2019-01-30T00:25:07.342Z,8.90
2019-01-30T00:26:07.342Z,9.20
2019-01-30T00:27:07.329Z,9.30
2019-01-30T00:28:07.309Z,9.40
2019-01-30T00:29:07.298Z,10.00
2019-01-30T00:30:07.287Z,10.00
2019-01-30T00:31:07.288Z,9.60
2019-01-30T00:32:07.266Z,9.70
2019-01-30T00:33:07.271Z,9.60
2019-01-30T00:34:07.270Z,9.70
2019-01-30T00:35:07.280Z,9.70
2019-01-30T00:36:07.223Z,9.60
2019-01-30T00:37:07.222Z,9.60
2019-01-30T00:38:07.202Z,9.30
2019-01-30T00:39:07.216Z,9.80
2019-01-30T00:40:07.193Z,9.60
2019-01-30T00:41:07.167Z,9.50
2019-01-30T00:42:07.157Z,10.20
2019-01-30T00:43:07.148Z,9.60
2019-01-30T00:44:07.140Z,10.10
2019-01-30T00:45:07.130Z,10.20
2019-01-30T00:46:07.117Z,10.10
2019-01-30T00:47:15.721Z,10.30
2019-01-30T00:48:08.092Z,9.80
2019-01-30T00:49:07.084Z,9.90
2019-01-30T00:50:07.071Z,10.30
2019-01-30T00:51:07.083Z,10.50
2019-01-30T00:52:07.048Z,10.60
2019-01-30T00:53:07.045Z,10.40
2019-01-30T00:54:07.042Z,10.00
2019-01-30T00:55:07.017Z,10.50
2019-01-30T00:56:07.013Z,10.10
2019-01-30T00:57:07.025Z,10.40
2019-01-30T00:58:06.980Z,10.40
2019-01-30T00:59:06.975Z,10.40
2019-01-30T01:00:14.331Z,10.60
2019-01-30T01:01:07.949Z,10.80
2019-01-30T01:02:06.940Z,10.70
2019-01-30T01:03:06.957Z,10.70
2019-01-30T01:04:06.915Z,10.50
2019-01-30T01:05:06.915Z,10.40
2019-01-30T01:06:06.897Z,10.40
2019-01-30T01:07:06.882Z,10.60
2019-01-30T01:08:06.876Z,10.70
2019-01-30T01:09:06.872Z,10.70
2019-01-30T01:10:06.864Z,10.60
2019-01-30T01:11:06.839Z,10.30
2019-01-30T01:12:06.832Z,11.60
2019-01-30T01:13:06.817Z,10.40
2019-01-30T01:14:06.805Z,11.10
2019-01-30T01:15:06.824Z,11.00
2019-01-30T01:16:06.790Z,10.70
2019-01-30T01:17:06.772Z,11.00
2019-01-30T01:18:06.764Z,10.50
2019-01-30T01:19:06.754Z,11.40
2019-01-30T01:20:06.740Z,10.80
2019-01-30T01:21:06.815Z,10.50
2019-01-30T01:22:06.734Z,11.60
2019-01-30T01:23:06.707Z,10.80
2019-01-30T01:24:06.700Z,10.70
2019-01-30T01:25:06.686Z,10.70
2019-01-30T01:26:06.690Z,11.00
2019-01-30T01:27:06.663Z,11.00
2019-01-30T01:28:06.668Z,11.20
2019-01-30T01:29:06.660Z,11.00
2019-01-30T01:30:06.640Z,11.50
2019-01-30T01:31:06.638Z,11.50
2019-01-30T01:32:06.613Z,11.20
2019-01-30T01:33:06.617Z,11.30
2019-01-30T01:34:06.599Z,10.70
2019-01-30T01:35:06.583Z,11.00
2019-01-30T01:36:06.575Z,10.60
2019-01-30T01:37:06.558Z,10.90
2019-01-30T01:38:06.546Z,11.70
2019-01-30T01:39:06.537Z,11.10
2019-01-30T01:40:06.524Z,11.20
2019-01-30T01:41:06.544Z,11.20
2019-01-30T01:42:06.515Z,10.70
2019-01-30T01:43:06.489Z,11.20
2019-01-30T01:44:06.479Z,11.40
2019-01-30T01:45:06.472Z,11.50
2019-01-30T01:46:06.468Z,11.20
2019-01-30T01:47:06.451Z,11.50
2019-01-30T01:48:06.465Z,11.60
2019-01-30T01:49:06.422Z,11.80
2019-01-30T01:50:06.412Z,11.30
2019-01-30T01:51:06.403Z,11.20
2019-01-30T01:52:06.391Z,11.40
2019-01-30T01:53:06.385Z,11.80
2019-01-30T01:54:06.381Z,11.30
2019-01-30T01:55:06.358Z,11.40
2019-01-30T01:56:06.346Z,11.20
2019-01-30T01:57:06.335Z,12.40
2019-01-30T01:58:06.343Z,13.40
2019-01-30T01:59:06.316Z,12.70
2019-01-30T02:00:06.325Z,17.50
2019-01-30T02:01:06.324Z,14.80
2019-01-30T02:02:06.280Z,15.20
2019-01-30T02:03:06.377Z,13.50
2019-01-30T02:04:06.279Z,11.70
2019-01-30T02:05:06.247Z,11.20
2019-01-30T02:06:06.239Z,11.70
2019-01-30T02:07:06.246Z,11.70
2019-01-30T02:08:06.217Z,11.30
2019-01-30T02:09:06.235Z,12.10
2019-01-30T02:10:06.206Z,11.80
2019-01-30T02:11:06.191Z,11.60
2019-01-30T02:12:06.205Z,11.40
2019-01-30T02:13:06.186Z,11.60
2019-01-30T02:14:06.187Z,11.90
2019-01-30T02:15:06.157Z,11.20
2019-01-30T02:16:06.178Z,11.90
2019-01-30T02:17:06.120Z,11.50
2019-01-30T02:18:08.479Z,11.50
2019-01-30T02:19:06.101Z,11.90
2019-01-30T02:20:06.123Z,11.60
2019-01-30T02:21:06.093Z,11.20
2019-01-30T02:22:06.094Z,11.80
2019-01-30T02:23:06.082Z,11.80
2019-01-30T02:24:06.064Z,11.40
2019-01-30T02:25:06.033Z,11.30
2019-01-30T02:26:06.025Z,11.60
2019-01-30T02:27:06.018Z,11.70
2019-01-30T02:28:06.004Z,11.60
2019-01-30T02:29:05.991Z,12.10
2019-01-30T02:30:06.052Z,11.60
2019-01-30T02:31:05.995Z,11.80
2019-01-30T02:32:05.973Z,11.60
2019-01-30T02:33:05.964Z,12.00
2019-01-30T02:34:05.936Z,12.20
2019-01-30T02:35:05.935Z,11.60
2019-01-30T02:36:05.930Z,11.80
2019-01-30T02:37:05.916Z,11.60
2019-01-30T02:38:05.886Z,11.00
2019-01-30T02:39:05.886Z,11.70
2019-01-30T02:40:05.867Z,11.80
2019-01-30T02:41:05.887Z,11.80
2019-01-30T02:42:05.870Z,11.70
2019-01-30T02:43:05.836Z,11.60
2019-01-30T02:44:05.822Z,11.70
2019-01-30T02:45:05.811Z,11.40
2019-01-30T02:46:05.815Z,12.10
2019-01-30T02:47:05.821Z,11.50
2019-01-30T02:48:05.831Z,11.40
2019-01-30T02:49:05.807Z,12.10
2019-01-30T02:50:05.755Z,12.00
2019-01-30T02:51:05.784Z,11.60
2019-01-30T02:52:05.736Z,11.20
2019-01-30T02:53:05.722Z,11.70
2019-01-30T02:54:05.714Z,11.70
2019-01-30T02:55:05.708Z,12.10
2019-01-30T02:56:05.705Z,12.40
2019-01-30T02:57:05.685Z,12.20
2019-01-30T02:58:05.672Z,12.00
2019-01-30T02:59:05.684Z,11.90
2019-01-30T03:00:05.647Z,11.80
2019-01-30T03:01:05.638Z,12.60
2019-01-30T03:02:05.647Z,11.90
2019-01-30T03:03:05.629Z,12.20
2019-01-30T03:04:05.606Z,12.10
2019-01-30T03:05:05.594Z,12.20
2019-01-30T03:06:05.582Z,11.70
2019-01-30T03:07:05.591Z,11.50
2019-01-30T03:08:05.576Z,12.40
2019-01-30T03:09:05.574Z,12.10
2019-01-30T03:10:05.699Z,12.10
2019-01-30T03:11:05.526Z,12.10
2019-01-30T03:12:05.529Z,11.70
2019-01-30T03:13:05.504Z,12.50
2019-01-30T03:14:05.493Z,12.20
2019-01-30T03:15:05.492Z,12.70
2019-01-30T03:16:05.473Z,12.80
2019-01-30T03:17:05.478Z,12.00
2019-01-30T03:18:05.448Z,12.50
2019-01-30T03:19:05.440Z,12.50
2019-01-30T03:20:05.429Z,12.50
2019-01-30T03:21:05.421Z,12.60
2019-01-30T03:22:05.420Z,12.20
2019-01-30T03:23:05.414Z,12.70
2019-01-30T03:24:05.386Z,12.20
2019-01-30T03:25:05.388Z,12.30
2019-01-30T03:26:05.368Z,12.50
2019-01-30T03:27:05.352Z,12.30
2019-01-30T03:28:05.351Z,12.50
2019-01-30T03:29:05.347Z,12.10
2019-01-30T03:30:05.327Z,12.40
2019-01-30T03:31:16.696Z,12.50
2019-01-30T03:32:06.300Z,12.30
2019-01-30T03:33:05.306Z,12.50
2019-01-30T03:34:05.285Z,12.60
2019-01-30T03:35:05.270Z,12.90
2019-01-30T03:36:05.255Z,13.20
2019-01-30T03:37:05.251Z,12.90
2019-01-30T03:38:05.256Z,12.40
2019-01-30T03:39:05.242Z,13.20
2019-01-30T03:40:05.215Z,12.60
2019-01-30T03:41:05.212Z,13.40
2019-01-30T03:42:05.207Z,13.00
2019-01-30T03:43:05.177Z,12.80
2019-01-30T03:44:05.169Z,12.80
2019-01-30T03:45:05.171Z,12.80
2019-01-30T03:46:05.153Z,12.70
2019-01-30T03:47:05.165Z,13.50
2019-01-30T03:48:05.123Z,13.20
2019-01-30T03:49:05.127Z,13.20
2019-01-30T03:50:05.103Z,12.60
2019-01-30T03:51:05.090Z,12.90
2019-01-30T03:52:05.084Z,13.50
2019-01-30T03:53:05.074Z,13.90
2019-01-30T03:54:05.079Z,13.00
2019-01-30T03:55:05.182Z,12.80
2019-01-30T03:56:05.056Z,13.40
2019-01-30T03:57:05.030Z,13.80
2019-01-30T03:58:05.024Z,13.30
2019-01-30T03:59:05.049Z,13.20
2019-01-30T04:00:05.001Z,13.70
2019-01-30T04:01:04.989Z,13.40
2019-01-30T04:02:04.975Z,13.70
2019-01-30T04:03:04.966Z,13.60
2019-01-30T04:04:04.977Z,13.10
2019-01-30T04:05:04.947Z,13.30
2019-01-30T04:06:04.954Z,13.10
2019-01-30T04:07:04.941Z,13.70
2019-01-30T04:08:04.925Z,13.60
2019-01-30T04:09:04.920Z,13.60
2019-01-30T04:10:04.923Z,13.70
2019-01-30T04:11:04.875Z,14.30
2019-01-30T04:12:04.866Z,13.60
2019-01-30T04:13:04.852Z,14.10
2019-01-30T04:14:04.843Z,13.60
2019-01-30T04:15:04.869Z,13.40
2019-01-30T04:16:04.916Z,15.70
2019-01-30T04:17:04.810Z,14.50
2019-01-30T04:18:04.798Z,17.10
2019-01-30T04:19:04.816Z,21.20
2019-01-30T04:20:04.810Z,18.30
2019-01-30T04:21:04.779Z,19.70
2019-01-30T04:22:04.758Z,18.60
2019-01-30T04:23:04.749Z,15.80
2019-01-30T04:24:04.735Z,15.90
2019-01-30T04:25:04.734Z,14.10
2019-01-30T04:26:04.752Z,14.60
2019-01-30T04:27:04.720Z,15.70
2019-01-30T04:28:04.702Z,14.50
2019-01-30T04:29:04.688Z,13.80
2019-01-30T04:30:04.676Z,14.60
2019-01-30T04:31:04.658Z,13.60
2019-01-30T04:32:04.723Z,14.30
2019-01-30T04:33:04.644Z,14.10
2019-01-30T04:34:04.625Z,13.50
2019-01-30T04:35:04.614Z,14.20
2019-01-30T04:36:04.617Z,13.80
2019-01-30T04:37:04.606Z,13.40
2019-01-30T04:38:04.594Z,14.20
2019-01-30T04:39:04.574Z,13.90
2019-01-30T04:40:04.621Z,14.00
2019-01-30T04:41:04.550Z,14.30
2019-01-30T04:42:04.575Z,14.00
2019-01-30T04:43:04.550Z,13.60
2019-01-30T04:44:04.545Z,13.70
2019-01-30T04:45:04.531Z,14.00
2019-01-30T04:46:04.503Z,13.70
2019-01-30T04:47:04.511Z,13.40
2019-01-30T04:48:04.474Z,14.00
2019-01-30T04:49:04.484Z,13.50
2019-01-30T04:50:04.453Z,13.50
2019-01-30T04:51:04.455Z,13.60
2019-01-30T04:52:04.459Z,13.80
2019-01-30T04:53:04.440Z,14.30
2019-01-30T04:54:04.432Z,13.70
2019-01-30T04:55:04.467Z,13.50
2019-01-30T04:56:04.388Z,13.70
2019-01-30T04:57:04.392Z,13.60
2019-01-30T04:58:04.379Z,13.50
2019-01-30T04:59:04.371Z,14.20
2019-01-30T05:00:04.343Z,13.90
2019-01-30T05:01:04.384Z,14.00
2019-01-30T05:02:04.322Z,14.10
2019-01-30T05:03:04.331Z,14.00
2019-01-30T05:04:04.308Z,14.70
2019-01-30T05:05:04.286Z,14.40
2019-01-30T05:06:04.291Z,13.90
2019-01-30T05:07:04.295Z,14.70
2019-01-30T05:08:04.324Z,14.60
2019-01-30T05:09:04.252Z,14.10
2019-01-30T05:10:04.238Z,13.80
2019-01-30T05:11:04.266Z,13.10
2019-01-30T05:12:04.230Z,14.50
2019-01-30T05:13:04.265Z,14.10
2019-01-30T05:14:04.197Z,13.50
2019-01-30T05:15:04.196Z,13.70
2019-01-30T05:16:04.180Z,14.30
2019-01-30T05:17:04.162Z,13.60
2019-01-30T05:18:04.152Z,13.60
2019-01-30T05:19:04.158Z,13.70
2019-01-30T05:20:04.128Z,13.70
2019-01-30T05:21:04.185Z,13.60
2019-01-30T05:22:04.168Z,13.60
2019-01-30T05:23:04.095Z,13.80
2019-01-30T05:24:04.096Z,13.20
2019-01-30T05:25:04.087Z,14.10
2019-01-30T05:26:04.066Z,13.70
2019-01-30T05:27:04.057Z,13.50
2019-01-30T05:28:04.085Z,13.30
2019-01-30T05:29:04.029Z,13.90
2019-01-30T05:30:04.022Z,14.30
2019-01-30T05:31:04.080Z,14.00
2019-01-30T05:32:04.004Z,13.80
2019-01-30T05:33:03.990Z,14.50
2019-01-30T05:34:03.979Z,14.40
2019-01-30T05:35:03.986Z,13.80
2019-01-30T05:36:03.975Z,14.90
2019-01-30T05:37:03.950Z,15.50
2019-01-30T05:38:03.984Z,15.70
2019-01-30T05:39:03.920Z,16.30
2019-01-30T05:40:03.927Z,16.10
2019-01-30T05:41:03.929Z,16.10
2019-01-30T05:42:03.911Z,16.10
2019-01-30T05:43:03.877Z,17.50
2019-01-30T05:44:03.878Z,16.00
2019-01-30T05:45:03.875Z,15.70
2019-01-30T05:46:03.852Z,16.40
2019-01-30T05:47:03.839Z,16.50
2019-01-30T05:48:03.823Z,16.10
2019-01-30T05:49:03.862Z,16.60
2019-01-30T05:50:03.812Z,16.50
2019-01-30T05:51:03.799Z,17.50
2019-01-30T05:52:03.792Z,18.10
2019-01-30T05:53:03.781Z,19.60
2019-01-30T05:54:03.767Z,18.70
2019-01-30T05:55:03.752Z,18.10
2019-01-30T05:56:03.767Z,19.20
2019-01-30T05:57:03.752Z,19.00
2019-01-30T05:58:03.717Z,18.50
2019-01-30T05:59:03.703Z,17.10
2019-01-30T06:00:03.694Z,17.00
2019-01-30T06:01:03.729Z,17.20
2019-01-30T06:02:11.937Z,20.30
2019-01-30T06:03:04.664Z,19.20
2019-01-30T06:04:03.655Z,20.00
2019-01-30T06:05:03.664Z,21.10
2019-01-30T06:06:03.653Z,29.50
2019-01-30T06:07:03.652Z,31.40
2019-01-30T06:08:03.644Z,33.20
2019-01-30T06:09:03.637Z,31.00
2019-01-30T06:10:03.598Z,23.20
2019-01-30T06:11:03.576Z,30.40
2019-01-30T06:12:03.593Z,28.50
2019-01-30T06:13:03.556Z,29.00
2019-01-30T06:14:03.544Z,24.50
2019-01-30T06:15:03.533Z,22.20
2019-01-30T06:16:03.531Z,22.10
2019-01-30T06:17:03.514Z,22.20
2019-01-30T06:18:03.534Z,18.90
2019-01-30T06:19:03.496Z,17.60
2019-01-30T06:20:03.500Z,17.30
2019-01-30T06:21:03.478Z,16.30
2019-01-30T06:22:03.470Z,15.60
2019-01-30T06:23:03.459Z,15.80
2019-01-30T06:24:03.442Z,16.00
2019-01-30T06:25:03.450Z,16.00
2019-01-30T06:26:03.412Z,15.00
2019-01-30T06:27:03.408Z,15.10
2019-01-30T06:28:03.421Z,15.00
2019-01-30T06:29:03.379Z,14.60
2019-01-30T06:30:03.374Z,14.30
2019-01-30T06:31:03.365Z,15.00
2019-01-30T06:32:03.344Z,14.40
2019-01-30T06:33:03.355Z,14.30
2019-01-30T06:34:03.332Z,14.80
2019-01-30T06:35:03.365Z,13.90
2019-01-30T06:36:03.302Z,15.00
2019-01-30T06:37:03.294Z,14.90
2019-01-30T06:38:03.285Z,13.80
2019-01-30T06:39:03.286Z,13.30
2019-01-30T06:40:03.262Z,14.30
2019-01-30T06:41:03.247Z,14.50
2019-01-30T06:42:03.256Z,14.80
2019-01-30T06:43:03.229Z,14.70
2019-01-30T06:44:03.220Z,14.50
2019-01-30T06:45:03.209Z,14.80
2019-01-30T06:46:03.212Z,15.40
2019-01-30T06:47:03.180Z,15.70
2019-01-30T06:48:03.170Z,15.10
2019-01-30T06:49:03.180Z,14.90
2019-01-30T06:50:03.151Z,14.20
2019-01-30T06:51:03.146Z,14.10
2019-01-30T06:52:03.133Z,14.50
2019-01-30T06:53:03.118Z,14.40
2019-01-30T06:54:03.110Z,14.30
2019-01-30T06:55:03.102Z,14.10
2019-01-30T06:56:03.084Z,13.90
2019-01-30T06:57:03.072Z,14.40
2019-01-30T06:58:03.073Z,14.50
2019-01-30T06:59:03.054Z,14.20
2019-01-30T07:00:03.052Z,14.40
2019-01-30T07:01:03.033Z,14.80
2019-01-30T07:02:03.033Z,13.90
2019-01-30T07:03:03.013Z,14.80
2019-01-30T07:04:03.083Z,15.80
2019-01-30T07:05:03.005Z,19.40
2019-01-30T07:06:02.985Z,17.90
2019-01-30T07:07:03.001Z,23.40
2019-01-30T07:08:02.961Z,21.30
2019-01-30T07:09:02.998Z,16.10
2019-01-30T07:10:02.938Z,15.00
2019-01-30T07:11:10.318Z,13.80
2019-01-30T07:12:03.931Z,14.10
2019-01-30T07:13:02.921Z,13.40
2019-01-30T07:14:02.919Z,13.30
2019-01-30T07:15:02.884Z,14.70
2019-01-30T07:16:02.900Z,14.70
2019-01-30T07:17:02.860Z,13.90
2019-01-30T07:18:02.860Z,14.20
2019-01-30T07:19:02.898Z,13.80
2019-01-30T07:20:02.831Z,14.70
2019-01-30T07:21:02.818Z,14.20
2019-01-30T07:22:02.810Z,13.90
2019-01-30T07:23:02.874Z,13.70
2019-01-30T07:24:02.793Z,13.60
2019-01-30T07:25:02.797Z,14.10
2019-01-30T07:26:02.764Z,13.70
2019-01-30T07:27:02.750Z,14.50
2019-01-30T07:28:02.750Z,15.20
2019-01-30T07:29:02.728Z,14.30
2019-01-30T07:30:02.731Z,14.30
2019-01-30T07:31:02.708Z,14.60
2019-01-30T07:32:02.696Z,15.40
2019-01-30T07:33:02.683Z,14.40
2019-01-30T07:34:02.760Z,14.50
2019-01-30T07:35:02.684Z,14.60
2019-01-30T07:36:02.662Z,13.90
2019-01-30T07:37:02.664Z,13.10
2019-01-30T07:38:02.649Z,12.60
2019-01-30T07:39:02.622Z,13.30
2019-01-30T07:40:02.630Z,13.20
2019-01-30T07:41:02.595Z,12.50
2019-01-30T07:42:02.616Z,13.10
2019-01-30T07:43:02.581Z,13.20
2019-01-30T07:44:02.566Z,12.90
2019-01-30T07:45:02.630Z,12.70
2019-01-30T07:46:02.570Z,13.10
2019-01-30T07:47:02.549Z,13.10
2019-01-30T07:48:02.575Z,13.00
2019-01-30T07:49:02.518Z,13.20
2019-01-30T07:50:02.508Z,12.40
2019-01-30T07:51:02.513Z,12.90
2019-01-30T07:52:02.490Z,12.90
2019-01-30T07:53:02.478Z,12.90
2019-01-30T07:54:02.473Z,12.60
2019-01-30T07:55:02.476Z,12.30
2019-01-30T07:56:02.446Z,12.40
2019-01-30T07:57:03.217Z,12.80
2019-01-30T07:58:02.426Z,12.60
2019-01-30T07:59:02.411Z,12.90
2019-01-30T08:00:02.391Z,12.40
2019-01-30T08:01:02.492Z,12.30
2019-01-30T08:02:02.390Z,13.40
2019-01-30T08:03:02.361Z,12.90
2019-01-30T08:04:02.361Z,12.80
2019-01-30T08:05:02.395Z,13.00
2019-01-30T08:06:02.329Z,12.10
2019-01-30T08:07:03.154Z,12.40
2019-01-30T08:08:02.313Z,12.70
2019-01-30T08:09:02.307Z,11.40
2019-01-30T08:10:02.280Z,11.80
2019-01-30T08:11:02.334Z,11.40
2019-01-30T08:12:02.279Z,10.90
2019-01-30T08:13:02.291Z,10.20
2019-01-30T08:14:02.255Z,10.90
2019-01-30T08:15:02.253Z,11.70
2019-01-30T08:16:02.223Z,12.20
2019-01-30T08:17:02.240Z,12.80
2019-01-30T08:18:02.212Z,18.20
2019-01-30T08:19:02.179Z,18.90
2019-01-30T08:20:02.180Z,18.70
2019-01-30T08:21:02.157Z,17.60
2019-01-30T08:22:02.147Z,16.50
2019-01-30T08:23:02.532Z,16.30
2019-01-30T08:24:02.141Z,15.40
2019-01-30T08:25:02.130Z,16.20
2019-01-30T08:26:02.422Z,17.10
2019-01-30T08:27:02.121Z,15.70
2019-01-30T08:28:02.235Z,13.50
2019-01-30T08:29:02.263Z,13.50
2019-01-30T08:30:02.595Z,12.60
2019-01-30T08:31:02.474Z,12.40
2019-01-30T08:32:02.581Z,14.50
2019-01-30T08:33:05.392Z,15.60
2019-01-30T08:34:02.035Z,14.50
2019-01-30T08:35:02.006Z,13.30
2019-01-30T08:36:01.998Z,12.20
2019-01-30T08:37:01.986Z,12.60
2019-01-30T08:38:01.982Z,12.90
2019-01-30T08:39:01.969Z,12.00
2019-01-30T08:40:01.962Z,12.70
2019-01-30T08:41:02.015Z,12.50
2019-01-30T08:42:01.955Z,12.30
2019-01-30T08:43:01.922Z,12.10
2019-01-30T08:44:01.911Z,12.30
2019-01-30T08:45:01.907Z,11.90
2019-01-30T08:46:01.892Z,12.30
2019-01-30T08:47:01.910Z,11.70
2019-01-30T08:48:01.888Z,11.30
2019-01-30T08:49:01.874Z,11.50
2019-01-30T08:50:01.845Z,10.40
2019-01-30T08:51:01.948Z,11.10
2019-01-30T08:52:01.859Z,11.40
2019-01-30T08:53:01.818Z,10.70
2019-01-30T08:54:01.859Z,11.00
2019-01-30T08:55:01.803Z,11.40
2019-01-30T08:56:01.783Z,11.00
2019-01-30T08:57:01.830Z,11.10
2019-01-30T08:58:01.802Z,12.10
2019-01-30T08:59:01.760Z,11.70
2019-01-30T09:00:01.745Z,12.10
2019-01-30T09:01:01.721Z,11.80
2019-01-30T09:02:01.730Z,11.20
2019-01-30T09:03:01.711Z,11.60
2019-01-30T09:04:01.699Z,11.50
2019-01-30T09:05:01.679Z,11.30
2019-01-30T09:06:01.668Z,11.00
2019-01-30T09:07:01.734Z,11.70
2019-01-30T09:08:01.661Z,12.80
2019-01-30T09:09:01.642Z,12.70
2019-01-30T09:10:01.624Z,11.70
2019-01-30T09:11:01.615Z,11.90
2019-01-30T09:12:01.605Z,12.40
2019-01-30T09:13:01.634Z,11.90
2019-01-30T09:14:01.581Z,11.80
2019-01-30T09:15:01.574Z,11.90
2019-01-30T09:16:01.558Z,12.50
2019-01-30T09:17:01.552Z,12.60
2019-01-30T09:18:01.555Z,12.00
2019-01-30T09:19:01.528Z,12.30
2019-01-30T09:20:01.517Z,11.80
2019-01-30T09:21:01.516Z,13.80
2019-01-30T09:22:01.492Z,13.30
2019-01-30T09:23:01.571Z,13.20
2019-01-30T09:24:01.472Z,12.50
2019-01-30T09:25:01.467Z,12.20
2019-01-30T09:26:02.205Z,11.80
2019-01-30T09:27:01.451Z,12.30
2019-01-30T09:28:01.457Z,12.50
2019-01-30T09:29:01.425Z,14.60
2019-01-30T09:30:01.413Z,17.50
2019-01-30T09:31:01.399Z,16.10
2019-01-30T09:32:01.394Z,13.60
2019-01-30T09:33:01.373Z,14.20
2019-01-30T09:34:01.421Z,14.00
2019-01-30T09:35:01.415Z,13.70
2019-01-30T09:36:01.351Z,12.60
2019-01-30T09:37:01.333Z,11.80
2019-01-30T09:38:01.325Z,12.20
2019-01-30T09:39:01.369Z,12.40
2019-01-30T09:40:01.399Z,12.50
2019-01-30T09:41:01.295Z,12.00
2019-01-30T09:42:01.283Z,12.40
2019-01-30T09:43:01.273Z,11.90
2019-01-30T09:44:01.284Z,12.10
2019-01-30T09:45:01.262Z,12.30
2019-01-30T09:46:01.260Z,12.40
2019-01-30T09:47:01.246Z,12.00
2019-01-30T09:48:01.243Z,12.70
2019-01-30T09:49:01.243Z,11.90
2019-01-30T09:50:01.220Z,11.50
2019-01-30T09:51:01.190Z,11.50
2019-01-30T09:52:01.183Z,12.20
2019-01-30T09:53:01.171Z,12.60
2019-01-30T09:54:01.174Z,12.30
2019-01-30T09:55:01.193Z,11.90
2019-01-30T09:56:01.142Z,11.70
2019-01-30T09:57:01.118Z,11.70
2019-01-30T09:58:01.103Z,12.30
2019-01-30T09:59:01.100Z,12.40
2019-01-30T10:00:01.084Z,12.00
2019-01-30T10:01:01.072Z,12.60
2019-01-30T10:02:01.080Z,12.50
2019-01-30T10:03:01.094Z,11.80
2019-01-30T10:04:01.068Z,11.80
2019-01-30T10:05:01.028Z,11.80
2019-01-30T10:06:01.017Z,11.90
2019-01-30T10:07:01.006Z,12.20
2019-01-30T10:08:01.007Z,12.40
2019-01-30T10:09:01.051Z,13.10
2019-01-30T10:10:00.998Z,15.40
2019-01-30T10:11:00.960Z,14.80
2019-01-30T10:12:00.949Z,12.40
2019-01-30T10:13:00.940Z,12.40
2019-01-30T10:14:00.943Z,12.40
2019-01-30T10:15:00.932Z,12.20
2019-01-30T10:16:00.911Z,11.60
2019-01-30T10:17:00.996Z,12.10
2019-01-30T10:18:00.888Z,11.90
2019-01-30T10:19:00.904Z,11.80
2019-01-30T10:20:00.876Z,11.80
2019-01-30T10:21:00.861Z,12.20
2019-01-30T10:22:00.845Z,12.00
2019-01-30T10:23:00.856Z,11.90
2019-01-30T10:24:00.853Z,11.60
2019-01-30T10:25:00.811Z,11.30
2019-01-30T10:26:00.816Z,11.50
2019-01-30T10:27:00.786Z,11.20
2019-01-30T10:28:00.806Z,12.10
2019-01-30T10:29:00.780Z,11.50
2019-01-30T10:30:00.769Z,12.10
2019-01-30T10:31:00.775Z,11.30
2019-01-30T10:32:00.771Z,11.80
2019-01-30T10:33:00.775Z,11.70
2019-01-30T10:34:00.741Z,11.50
2019-01-30T10:35:00.717Z,11.90
2019-01-30T10:36:00.705Z,11.90
2019-01-30T10:37:00.720Z,11.30
2019-01-30T10:38:00.703Z,11.40
2019-01-30T10:39:00.662Z,11.30
2019-01-30T10:40:00.647Z,11.40
2019-01-30T10:41:00.673Z,11.80
2019-01-30T10:42:00.654Z,11.60
2019-01-30T10:43:00.685Z,11.60
2019-01-30T10:44:00.673Z,11.20
2019-01-30T10:45:00.635Z,11.20
2019-01-30T10:46:00.602Z,11.20
2019-01-30T10:47:00.565Z,10.80
2019-01-30T10:48:00.568Z,11.10
2019-01-30T10:49:00.554Z,11.40
2019-01-30T10:50:00.552Z,11.00
2019-01-30T10:51:00.556Z,11.10
2019-01-30T10:52:00.684Z,11.50
2019-01-30T10:53:00.536Z,12.50
2019-01-30T10:54:00.492Z,12.30
2019-01-30T10:55:00.523Z,13.40
2019-01-30T10:56:00.475Z,11.80
2019-01-30T10:57:00.455Z,11.50
2019-01-30T10:58:00.466Z,11.00
2019-01-30T10:59:00.457Z,10.60
2019-01-30T11:00:00.476Z,10.90
2019-01-30T11:01:00.429Z,10.60
2019-01-30T11:02:00.403Z,10.40
2019-01-30T11:03:00.419Z,11.00
2019-01-30T11:04:00.381Z,11.10
2019-01-30T11:05:00.373Z,10.50
2019-01-30T11:06:00.358Z,10.70
2019-01-30T11:07:00.352Z,11.10
2019-01-30T11:08:00.354Z,10.70
2019-01-30T11:09:00.360Z,10.90
2019-01-30T11:10:00.348Z,11.40
2019-01-30T11:11:07.463Z,11.30
2019-01-30T11:12:01.291Z,11.40
2019-01-30T11:13:00.286Z,11.00
2019-01-30T11:14:00.287Z,11.50
2019-01-30T11:15:02.833Z,12.70
2019-01-30T11:16:01.277Z,14.70
2019-01-30T11:17:00.256Z,13.50
2019-01-30T11:18:00.263Z,11.50
2019-01-30T11:19:00.219Z,11.20
2019-01-30T11:20:00.215Z,10.20
2019-01-30T11:21:00.200Z,10.10
2019-01-30T11:22:00.184Z,10.60
2019-01-30T11:23:00.186Z,10.80
2019-01-30T11:24:00.183Z,10.70
2019-01-30T11:25:00.401Z,10.70
2019-01-30T11:26:00.156Z,10.70
2019-01-30T11:27:00.129Z,10.80
2019-01-30T11:28:00.125Z,10.80
2019-01-30T11:29:00.106Z,10.90
2019-01-30T11:30:00.295Z,10.40
2019-01-30T11:31:00.098Z,11.00
2019-01-30T11:32:00.072Z,12.10
2019-01-30T11:33:00.067Z,11.20
2019-01-30T11:34:07.355Z,11.80
2019-01-30T11:35:01.045Z,16.70
2019-01-30T11:36:00.033Z,12.50
2019-01-30T11:37:00.281Z,11.70
2019-01-30T11:38:00.018Z,11.50
2019-01-30T11:39:00.045Z,11.80
2019-01-30T11:39:59.992Z,11.80
2019-01-30T11:40:59.986Z,11.10
2019-01-30T11:41:59.993Z,11.90
2019-01-30T11:42:59.957Z,12.10
2019-01-30T11:43:59.983Z,11.80
2019-01-30T11:44:59.931Z,12.10
2019-01-30T11:45:59.917Z,12.60
2019-01-30T11:46:59.918Z,12.50
2019-01-30T11:47:59.913Z,13.20
2019-01-30T11:48:59.896Z,14.30
2019-01-30T11:49:59.880Z,13.00
2019-01-30T11:50:59.861Z,12.10
2019-01-30T11:51:59.871Z,11.00
2019-01-30T11:52:59.866Z,11.10
2019-01-30T11:53:59.848Z,11.80
2019-01-30T11:54:59.826Z,11.50
2019-01-30T11:55:59.818Z,11.00
2019-01-30T11:56:59.867Z,11.40
2019-01-30T11:57:59.807Z,10.90
2019-01-30T11:58:59.852Z,11.50
2019-01-30T11:59:59.820Z,16.30
2019-01-30T12:00:59.758Z,13.80
2019-01-30T12:01:59.747Z,16.50
2019-01-30T12:02:59.745Z,17.00
2019-01-30T12:03:59.728Z,13.90
2019-01-30T12:04:59.714Z,11.20
2019-01-30T12:05:59.737Z,11.30
2019-01-30T12:06:59.705Z,12.20
2019-01-30T12:07:59.726Z,12.70
2019-01-30T12:08:59.726Z,13.40
2019-01-30T12:09:59.660Z,11.90
2019-01-30T12:10:59.705Z,13.60
2019-01-30T12:11:59.686Z,16.70
2019-01-30T12:12:59.636Z,12.40
2019-01-30T12:13:59.615Z,13.70
2019-01-30T12:14:59.623Z,11.70
2019-01-30T12:15:59.588Z,11.40
2019-01-30T12:16:59.585Z,10.60
2019-01-30T12:17:59.576Z,10.20
2019-01-30T12:18:59.559Z,10.00
2019-01-30T12:19:59.564Z,9.40
2019-01-30T12:20:59.539Z,10.00
2019-01-30T12:21:59.542Z,9.90
2019-01-30T12:22:59.511Z,10.20
2019-01-30T12:23:59.515Z,10.10
2019-01-30T12:24:59.546Z,9.70
2019-01-30T12:25:59.492Z,10.30
2019-01-30T12:26:59.492Z,10.20
2019-01-30T12:27:59.488Z,9.90
2019-01-30T12:28:59.463Z,10.30
2019-01-30T12:29:59.446Z,10.70
2019-01-30T12:30:59.424Z,10.50
2019-01-30T12:31:59.494Z,9.90
2019-01-30T12:32:59.490Z,9.60
2019-01-30T12:33:59.411Z,9.40
2019-01-30T12:34:59.435Z,9.50
2019-01-30T12:35:59.450Z,10.70
2019-01-30T12:36:59.482Z,10.00
2019-01-30T12:37:59.439Z,10.00
2019-01-30T12:38:59.340Z,10.40
2019-01-30T12:39:59.332Z,10.50
2019-01-30T12:40:59.328Z,10.20
2019-01-30T12:41:59.308Z,10.60
2019-01-30T12:42:59.290Z,11.20
2019-01-30T12:43:59.335Z,10.70
2019-01-30T12:44:59.287Z,10.50
2019-01-30T12:45:59.261Z,10.10
2019-01-30T12:46:59.247Z,9.90
2019-01-30T12:47:59.282Z,9.90
2019-01-30T12:48:59.224Z,9.80
2019-01-30T12:49:59.212Z,9.40
2019-01-30T12:50:59.258Z,9.40
2019-01-30T12:51:59.190Z,9.30
2019-01-30T12:52:59.182Z,8.60
2019-01-30T12:53:59.176Z,8.90